Time;durP1;ratioP1;P1;durP2;ratioP2;P2;SDS_P1;SDS_P2;PMS_P1;PMS_P2;Temp;Humidity;BMP_temperature;BMP_pressure;BME280_temperature;BME280_humidity;BME280_pressure;Samples;Min_cycle;Max_cycle;Signal;HPM_P1;HPM_P2
2022/04/13 00:02:04;;;;;;;30.48;21.08;;;12.90;99.90;;;;;;5057315;28;20029;-74
2022/04/13 00:04:30;;;;;;;32.30;21.88;;;12.80;99.90;;;;;;5058184;28;20115;-72
2022/04/13 00:06:57;;;;;;;31.25;20.00;;;12.80;99.90;;;;;;5057704;28;20041;-72
2022/04/13 00:09:23;;;;;;;30.83;21.95;;;12.70;99.90;;;;;;5058019;28;20040;-75
2022/04/13 00:11:51;;;;;;;30.52;20.42;;;12.70;99.90;;;;;;5057904;28;20332;-75
2022/04/13 00:14:17;;;;;;;30.73;22.38;;;12.70;99.90;;;;;;5040428;28;20036;-73
2022/04/13 00:16:43;;;;;;;30.08;21.20;;;12.70;99.90;;;;;;5057633;28;20033;-73
2022/04/13 00:19:08;;;;;;;36.55;21.83;;;12.60;99.90;;;;;;5057713;28;20049;-75
2022/04/13 00:21:34;;;;;;;37.47;23.73;;;12.60;99.90;;;;;;5057816;28;20036;-73
2022/04/13 00:24:00;;;;;;;30.20;20.75;;;12.60;99.90;;;;;;5057324;28;20073;-74
2022/04/13 00:26:25;;;;;;;33.25;22.30;;;12.50;99.90;;;;;;5057345;28;20037;-73
2022/04/13 00:28:51;;;;;;;32.97;23.55;;;12.50;99.90;;;;;;5057525;28;20037;-72
2022/04/13 00:31:16;;;;;;;30.33;22.23;;;12.50;99.90;;;;;;5057165;28;20355;-73
2022/04/13 00:33:42;;;;;;;39.47;22.27;;;12.50;99.90;;;;;;5057292;28;20048;-74
2022/04/13 00:36:07;;;;;;;34.85;23.27;;;12.50;99.90;;;;;;5057155;28;20048;-72
2022/04/13 00:38:33;;;;;;;29.95;20.80;;;12.50;99.90;;;;;;5056954;28;20036;-74
2022/04/13 00:41:00;;;;;;;33.60;21.10;;;12.50;99.90;;;;;;5057172;28;20049;-72
2022/04/13 00:43:26;;;;;;;30.75;21.75;;;12.50;99.90;;;;;;5057380;28;20060;-72
2022/04/13 00:45:52;;;;;;;28.83;20.45;;;12.60;99.90;;;;;;5039303;28;20107;-72
2022/04/13 00:48:30;;;;;;;31.50;20.35;;;12.60;99.90;;;;;;5057503;28;20032;-72
2022/04/13 00:50:56;;;;;;;28.92;19.52;;;12.60;99.90;;;;;;5057073;28;20053;-72
2022/04/13 00:53:23;;;;;;;28.25;20.20;;;12.60;99.90;;;;;;5056923;28;20040;-73
2022/04/13 00:55:50;;;;;;;31.40;20.27;;;12.60;99.90;;;;;;5057055;28;20041;-73
2022/04/13 00:58:27;;;;;;;30.80;20.55;;;12.60;99.90;;;;;;5056680;28;20525;-73
2022/04/13 01:00:54;;;;;;;28.63;21.33;;;12.60;99.90;;;;;;5056689;28;20024;-72
2022/04/13 01:03:22;;;;;;;31.73;21.30;;;12.60;99.90;;;;;;5056933;28;20090;-73
2022/04/13 01:05:49;;;;;;;34.70;22.67;;;12.60;99.90;;;;;;5056642;28;20355;-72
2022/04/13 01:08:17;;;;;;;30.38;21.88;;;12.60;99.90;;;;;;5056531;28;20041;-73
2022/04/13 01:10:44;;;;;;;31.25;21.30;;;12.60;99.90;;;;;;5056545;28;20041;-74
2022/04/13 01:13:11;;;;;;;31.48;22.65;;;12.60;99.90;;;;;;5057140;28;20041;-73
2022/04/13 01:15:37;;;;;;;30.48;20.80;;;12.60;99.90;;;;;;5056610;28;20075;-72
2022/04/13 01:18:03;;;;;;;35.28;22.85;;;12.60;99.90;;;;;;5056662;28;20032;-74
2022/04/13 01:20:28;;;;;;;30.00;22.67;;;12.60;99.90;;;;;;5056379;28;20033;-72
2022/04/13 01:22:54;;;;;;;37.33;24.83;;;12.50;99.90;;;;;;5056442;28;20052;-73
2022/04/13 01:25:20;;;;;;;36.58;23.20;;;12.40;99.90;;;;;;5056390;28;20354;-72
2022/04/13 01:27:46;;;;;;;29.88;21.92;;;12.40;99.90;;;;;;5056538;28;20442;-72
2022/04/13 01:30:12;;;;;;;36.53;23.27;;;12.40;99.90;;;;;;5056236;28;20362;-72
2022/04/13 01:32:38;;;;;;;35.35;24.35;;;12.40;99.90;;;;;;5056066;28;20048;-72
2022/04/13 01:35:04;;;;;;;36.22;22.55;;;12.30;99.90;;;;;;5055946;28;20040;-72
2022/04/13 01:37:30;;;;;;;36.00;23.65;;;12.30;99.90;;;;;;5056163;28;20041;-73
2022/04/13 01:39:55;;;;;;;36.90;22.75;;;12.20;99.90;;;;;;5056061;28;20107;-72
2022/04/13 01:42:21;;;;;;;32.10;22.17;;;12.20;99.90;;;;;;5038908;28;20431;-73
2022/04/13 01:44:48;;;;;;;31.52;23.33;;;12.20;99.90;;;;;;5056010;28;20386;-73
2022/04/13 01:47:14;;;;;;;31.58;23.50;;;12.20;99.90;;;;;;5055889;28;20037;-72
2022/04/13 01:49:40;;;;;;;29.25;20.75;;;12.20;99.90;;;;;;5055790;28;20506;-73
2022/04/13 01:52:07;;;;;;;32.22;21.60;;;12.20;99.90;;;;;;5055991;28;20029;-72
2022/04/13 01:54:33;;;;;;;35.63;21.00;;;12.10;99.90;;;;;;5055841;28;20439;-75
2022/04/13 01:56:59;;;;;;;28.95;20.05;;;12.10;99.90;;;;;;5055873;28;20033;-73
2022/04/13 01:59:25;;;;;;;34.70;19.90;;;12.20;99.90;;;;;;5055918;28;20108;-73
2022/04/13 02:01:50;;;;;;;27.45;18.33;;;12.20;99.90;;;;;;5037926;28;20084;-75
2022/04/13 02:04:20;;;;;;;30.02;18.63;;;12.20;99.90;;;;;;5055656;28;20099;-73
2022/04/13 02:06:47;;;;;;;26.60;18.25;;;12.20;99.90;;;;;;5055656;28;20087;-74
2022/04/13 02:09:14;;;;;;;26.48;17.70;;;12.10;99.90;;;;;;5055680;28;20095;-74
2022/04/13 02:11:40;;;;;;;28.70;16.40;;;12.20;99.90;;;;;;5055619;28;20041;-74
2022/04/13 02:14:06;;;;;;;22.92;15.68;;;12.20;99.90;;;;;;5055004;28;20048;-75
2022/04/13 02:16:32;;;;;;;24.20;16.75;;;12.10;99.90;;;;;;5055508;28;20106;-74
2022/04/13 02:18:58;;;;;;;25.45;16.23;;;12.10;99.90;;;;;;5055547;28;20053;-75
2022/04/13 02:21:23;;;;;;;25.33;14.80;;;12.10;99.90;;;;;;5054833;28;20410;-73
2022/04/13 02:23:49;;;;;;;23.65;15.23;;;12.10;99.90;;;;;;5055243;28;20037;-73
2022/04/13 02:26:14;;;;;;;29.75;16.13;;;12.10;99.90;;;;;;5055375;28;20048;-74
2022/04/13 02:28:42;;;;;;;29.80;15.95;;;12.10;99.90;;;;;;5055460;28;20094;-73
2022/04/13 02:31:07;;;;;;;21.77;16.45;;;12.10;99.90;;;;;;5055087;28;20040;-74
2022/04/13 02:33:33;;;;;;;22.33;15.00;;;12.10;99.90;;;;;;5055195;28;20124;-73
2022/04/13 02:35:58;;;;;;;24.05;15.40;;;12.10;99.90;;;;;;5055273;28;20465;-73
2022/04/13 02:38:25;;;;;;;23.50;15.10;;;12.10;99.90;;;;;;5054800;28;20041;-74
2022/04/13 02:40:51;;;;;;;28.23;16.80;;;12.00;99.90;;;;;;5055179;28;20037;-73
2022/04/13 02:43:16;;;;;;;24.80;15.95;;;12.10;99.90;;;;;;5054776;28;20123;-74
2022/04/13 02:45:42;;;;;;;27.85;17.38;;;12.00;99.90;;;;;;5054872;28;20466;-73
2022/04/13 02:48:08;;;;;;;25.05;17.60;;;12.00;99.90;;;;;;5037664;28;20041;-73
2022/04/13 02:50:34;;;;;;;31.25;17.48;;;12.00;99.90;;;;;;5037307;28;20367;-74
2022/04/13 02:53:00;;;;;;;29.05;18.00;;;12.00;99.90;;;;;;5055174;28;20041;-72
2022/04/13 02:55:25;;;;;;;25.10;17.83;;;11.90;99.90;;;;;;5054776;28;20376;-74
2022/04/13 02:57:51;;;;;;;27.90;17.88;;;11.90;99.90;;;;;;5037365;28;20343;-74
2022/04/13 03:00:17;;;;;;;27.70;17.67;;;11.90;99.90;;;;;;5054497;28;20071;-74
2022/04/13 03:02:44;;;;;;;29.38;17.33;;;11.90;99.90;;;;;;5054687;28;20037;-75
2022/04/13 03:05:10;;;;;;;29.77;18.05;;;11.90;99.90;;;;;;5054756;28;20076;-72
2022/04/13 03:07:36;;;;;;;24.88;16.90;;;11.90;99.90;;;;;;5054896;28;20116;-75
2022/04/13 03:10:03;;;;;;;31.85;18.33;;;11.90;99.90;;;;;;5054882;28;20079;-74
2022/04/13 03:12:29;;;;;;;29.90;17.02;;;11.90;99.90;;;;;;5054187;28;20041;-72
2022/04/13 03:14:54;;;;;;;24.70;17.77;;;11.90;99.90;;;;;;5053738;28;20336;-74
2022/04/13 03:17:20;;;;;;;29.15;18.17;;;11.80;99.90;;;;;;5036947;28;20446;-74
2022/04/13 03:19:45;;;;;;;25.55;18.30;;;11.90;99.90;;;;;;5054735;28;20059;-73
2022/04/13 03:22:11;;;;;;;31.55;19.80;;;11.80;99.90;;;;;;5054760;28;20028;-73
2022/04/13 03:24:37;;;;;;;33.50;20.30;;;11.80;99.90;;;;;;5054784;28;20048;-73
2022/04/13 03:27:03;;;;;;;29.77;20.40;;;11.80;99.90;;;;;;5054326;28;20505;-73
2022/04/13 03:29:28;;;;;;;35.78;20.20;;;11.70;99.90;;;;;;5054307;28;20033;-72
2022/04/13 03:31:54;;;;;;;33.70;21.35;;;11.70;99.90;;;;;;5021189;28;20114;-72
2022/04/13 03:34:22;;;;;;;30.58;20.55;;;11.70;99.90;;;;;;5058571;28;20072;-74
2022/04/13 03:36:49;;;;;;;35.67;21.70;;;11.60;99.90;;;;;;5058703;28;20052;-71
2022/04/13 03:39:14;;;;;;;32.53;22.23;;;11.60;99.90;;;;;;5058266;28;20049;-74
2022/04/13 03:41:40;;;;;;;34.28;21.70;;;11.50;99.90;;;;;;5041171;28;20447;-76
2022/04/13 03:44:06;;;;;;;33.08;23.23;;;11.50;99.90;;;;;;5040561;28;20037;-74
2022/04/13 03:46:32;;;;;;;40.40;23.83;;;11.60;99.90;;;;;;5058131;28;20037;-76
2022/04/13 03:48:58;;;;;;;35.60;23.33;;;11.50;99.90;;;;;;5057979;28;20107;-76
2022/04/13 03:51:24;;;;;;;32.50;23.95;;;11.50;99.90;;;;;;5058049;28;20451;-74
2022/04/13 03:53:50;;;;;;;32.30;22.65;;;11.50;99.90;;;;;;5057855;28;20047;-74
2022/04/13 03:56:15;;;;;;;29.65;22.67;;;11.50;99.90;;;;;;5040602;28;20119;-75
2022/04/13 03:58:41;;;;;;;32.47;22.88;;;11.50;99.90;;;;;;5057793;28;20521;-75
2022/04/13 04:01:10;;;;;;;33.60;22.98;;;11.50;99.90;;;;;;5058165;28;20041;-74
2022/04/13 04:03:37;;;;;;;33.97;23.02;;;11.60;99.90;;;;;;5058064;28;20047;-76
2022/04/13 04:06:03;;;;;;;29.98;22.38;;;11.60;99.90;;;;;;5058005;28;20076;-76
2022/04/13 04:08:29;;;;;;;31.27;21.27;;;11.60;99.90;;;;;;5057756;28;20075;-74
2022/04/13 04:10:55;;;;;;;32.00;24.02;;;11.60;99.90;;;;;;5040276;28;20128;-75
2022/04/13 04:13:21;;;;;;;34.55;22.33;;;11.60;99.90;;;;;;5057838;28;20128;-75
2022/04/13 04:15:47;;;;;;;36.95;22.65;;;11.70;99.90;;;;;;5057776;28;20076;-75
2022/04/13 04:18:13;;;;;;;30.58;21.70;;;11.70;99.90;;;;;;5057600;28;20068;-74
2022/04/13 04:20:38;;;;;;;35.35;23.73;;;11.70;99.90;;;;;;5057524;28;20132;-76
2022/04/13 04:23:04;;;;;;;28.98;21.48;;;11.70;99.90;;;;;;5040347;28;20098;-74
2022/04/13 04:25:29;;;;;;;32.50;22.27;;;11.70;99.90;;;;;;5039900;28;20090;-74
2022/04/13 04:27:55;;;;;;;31.15;23.23;;;11.70;99.90;;;;;;5057111;28;20131;-76
2022/04/13 04:30:21;;;;;;;33.10;22.65;;;11.70;99.90;;;;;;5057422;28;20044;-76
2022/04/13 04:32:46;;;;;;;31.90;22.83;;;11.70;99.90;;;;;;5057275;28;20049;-74
2022/04/13 04:35:12;;;;;;;38.28;23.70;;;11.70;99.90;;;;;;5039873;28;20060;-75
2022/04/13 04:37:37;;;;;;;34.58;23.92;;;11.70;99.90;;;;;;5039995;28;20041;-75
2022/04/13 04:40:04;;;;;;;42.90;24.42;;;11.70;99.90;;;;;;5056986;28;20381;-75
2022/04/13 04:42:29;;;;;;;37.15;24.33;;;11.70;99.90;;;;;;5056887;28;20041;-74
2022/04/13 04:44:57;;;;;;;39.97;25.00;;;11.70;99.90;;;;;;5057044;28;20448;-74
2022/04/13 04:47:23;;;;;;;36.97;24.73;;;11.70;99.90;;;;;;5038967;28;20045;-75
2022/04/13 04:49:48;;;;;;;34.67;24.85;;;11.60;99.90;;;;;;5056945;28;20048;-75
2022/04/13 04:52:14;;;;;;;36.72;26.30;;;11.60;99.90;;;;;;5039350;28;20043;-74
2022/04/13 04:54:39;;;;;;;37.38;26.33;;;11.60;99.90;;;;;;5056994;28;20056;-75
2022/04/13 04:57:05;;;;;;;38.13;26.08;;;11.60;99.90;;;;;;5056493;28;20076;-76
2022/04/13 04:59:31;;;;;;;37.80;25.30;;;11.60;99.90;;;;;;5039308;28;20079;-77
2022/04/13 05:01:56;;;;;;;41.67;26.13;;;11.50;99.90;;;;;;5038356;28;20048;-76
2022/04/13 05:04:22;;;;;;;40.30;26.15;;;11.50;99.90;;;;;;5039340;28;20037;-73
2022/04/13 05:06:48;;;;;;;33.33;25.25;;;11.50;99.90;;;;;;5056846;28;20124;-75
2022/04/13 05:09:17;;;;;;;39.22;25.00;;;11.50;99.90;;;;;;5056857;28;20438;-75
2022/04/13 05:11:43;;;;;;;37.40;25.75;;;11.50;99.90;;;;;;5056763;28;20098;-74
2022/04/13 05:14:08;;;;;;;40.10;24.77;;;11.50;99.90;;;;;;5056567;28;20397;-75
2022/04/13 05:16:34;;;;;;;38.25;25.90;;;11.50;99.90;;;;;;5056439;28;20033;-74
2022/04/13 05:19:00;;;;;;;37.13;25.08;;;11.50;99.90;;;;;;5056486;28;20171;-74
2022/04/13 05:21:26;;;;;;;33.22;24.92;;;11.40;99.90;;;;;;5056630;28;20103;-75
2022/04/13 05:23:51;;;;;;;39.28;25.20;;;11.50;99.90;;;;;;5038882;28;20435;-75
2022/04/13 05:26:18;;;;;;;37.00;24.15;;;11.40;99.90;;;;;;5055889;28;20033;-76
2022/04/13 05:28:45;;;;;;;34.85;23.60;;;11.40;99.90;;;;;;5056129;28;20056;-75
2022/04/13 05:31:11;;;;;;;33.17;24.52;;;11.40;99.90;;;;;;5056392;28;20053;-76
2022/04/13 05:33:37;;;;;;;38.50;25.23;;;11.50;99.90;;;;;;5056601;28;20041;-74
2022/04/13 05:36:03;;;;;;;36.60;25.25;;;11.50;99.90;;;;;;5056136;28;20037;-75
2022/04/13 05:38:29;;;;;;;38.35;24.85;;;11.50;99.90;;;;;;5056300;28;20037;-79
2022/04/13 05:40:55;;;;;;;35.00;24.92;;;11.40;99.90;;;;;;5038477;28;20051;-76
2022/04/13 05:43:20;;;;;;;35.05;23.75;;;11.40;99.90;;;;;;5055631;28;20463;-76
2022/04/13 05:45:46;;;;;;;40.80;25.52;;;11.50;99.90;;;;;;5056006;28;20409;-76
2022/04/13 05:48:11;;;;;;;34.28;23.90;;;11.50;99.90;;;;;;5052938;28;20102;-77
2022/04/13 05:50:37;;;;;;;35.97;24.73;;;11.40;99.90;;;;;;5038091;28;20072;-76
2022/04/13 05:53:02;;;;;;;40.60;25.33;;;11.40;99.90;;;;;;5055889;28;20049;-78
2022/04/13 05:55:28;;;;;;;36.05;24.17;;;11.40;99.90;;;;;;5054933;28;20083;-76
2022/04/13 05:57:54;;;;;;;31.60;23.40;;;11.40;99.90;;;;;;5055788;28;20036;-77
2022/04/13 06:00:20;;;;;;;42.28;24.45;;;11.40;99.90;;;;;;5055574;28;20502;-76
2022/04/13 06:02:46;;;;;;;38.88;25.33;;;11.40;99.90;;;;;;5055571;28;20036;-76
2022/04/13 06:05:12;;;;;;;36.22;23.95;;;11.40;99.90;;;;;;5055591;28;20102;-78
2022/04/13 06:07:38;;;;;;;34.80;22.60;;;11.40;99.90;;;;;;5055531;28;20044;-75
2022/04/13 06:10:05;;;;;;;38.15;25.25;;;11.50;99.90;;;;;;5055679;28;20062;-76
2022/04/13 06:12:31;;;;;;;37.72;22.38;;;11.50;99.90;;;;;;5055736;28;20048;-77
2022/04/13 06:15:10;;;;;;;31.95;21.90;;;11.50;99.90;;;;;;5054949;28;20040;-76
2022/04/13 06:17:36;;;;;;;41.67;23.35;;;11.50;99.90;;;;;;5038117;28;20052;-77
2022/04/13 06:20:02;;;;;;;37.17;21.63;;;11.60;99.90;;;;;;5055652;28;20051;-78
2022/04/13 06:22:37;;;;;;;32.65;22.15;;;11.60;99.90;;;;;;5051238;28;20114;-76
2022/04/13 06:25:04;;;;;;;31.85;21.83;;;11.60;99.90;;;;;;5055092;28;20124;-76
2022/04/13 06:27:29;;;;;;;31.88;22.10;;;11.60;99.90;;;;;;5037523;28;20098;-76
2022/04/13 06:29:55;;;;;;;36.60;21.35;;;11.60;99.90;;;;;;5055380;28;20036;-76
2022/04/13 06:32:20;;;;;;;38.08;21.92;;;11.60;99.90;;;;;;5055343;28;20087;-76
2022/04/13 06:34:46;;;;;;;34.47;21.25;;;11.60;99.90;;;;;;5055358;28;20112;-76
2022/04/13 06:37:12;;;;;;;31.00;20.25;;;11.70;99.90;;;;;;5037325;28;20371;-76
2022/04/13 06:39:37;;;;;;;30.55;19.13;;;11.70;99.90;;;;;;5055176;28;20393;-76
2022/04/13 06:42:03;;;;;;;26.75;19.17;;;11.70;99.90;;;;;;5037301;28;20116;-76
2022/04/13 06:44:29;;;;;;;30.20;19.33;;;11.70;99.90;;;;;;5037129;28;20131;-77
2022/04/13 06:46:54;;;;;;;32.58;19.35;;;11.70;99.90;;;;;;5055036;28;20040;-77
2022/04/13 06:49:20;;;;;;;28.63;18.55;;;11.70;99.90;;;;;;5054774;28;20045;-76
2022/04/13 06:51:45;;;;;;;28.23;19.02;;;11.80;99.90;;;;;;5055007;28;20655;-77
2022/04/13 06:54:11;;;;;;;27.90;18.05;;;11.90;99.90;;;;;;5054584;28;20052;-76
2022/04/13 06:56:39;;;;;;;33.22;19.45;;;11.90;99.90;;;;;;5037336;28;20049;-76
2022/04/13 06:59:05;;;;;;;28.73;18.05;;;12.00;99.90;;;;;;5037675;28;20077;-76
2022/04/13 07:01:31;;;;;;;28.48;18.05;;;12.00;99.90;;;;;;5054801;28;20040;-75
2022/04/13 07:03:56;;;;;;;32.72;17.65;;;12.00;99.90;;;;;;5054803;28;20049;-76
2022/04/13 07:06:22;;;;;;;30.92;16.70;;;12.10;99.90;;;;;;5054227;28;20041;-77
2022/04/13 07:08:47;;;;;;;32.35;16.40;;;12.10;99.90;;;;;;5037211;28;20359;-78
2022/04/13 07:11:13;;;;;;;27.25;17.13;;;12.20;99.90;;;;;;5055050;28;20453;-76
2022/04/13 07:13:38;;;;;;;27.38;17.98;;;12.20;99.90;;;;;;5054239;28;20047;-76
2022/04/13 07:16:04;;;;;;;29.40;17.33;;;12.30;99.90;;;;;;5055093;28;20029;-76
2022/04/13 07:18:30;;;;;;;28.70;16.95;;;12.40;99.90;;;;;;5054655;28;20032;-77
2022/04/13 07:20:55;;;;;;;36.50;19.13;;;12.40;99.90;;;;;;5054729;28;20398;-76
2022/04/13 07:23:21;;;;;;;28.02;17.13;;;12.50;99.90;;;;;;5037361;28;20053;-76
2022/04/13 07:25:46;;;;;;;26.48;16.52;;;12.50;99.90;;;;;;5055694;28;20041;-75
2022/04/13 07:28:13;;;;;;;27.05;17.30;;;12.50;99.90;;;;;;5077201;28;20033;-76
2022/04/13 07:30:38;;;;;;;25.67;16.55;;;12.60;99.90;;;;;;5077953;28;20032;-76
2022/04/13 07:33:04;;;;;;;28.83;16.88;;;12.70;99.90;;;;;;5056018;28;20112;-76
2022/04/13 07:35:31;;;;;;;24.88;14.85;;;12.80;99.90;;;;;;5058560;28;20045;-76
2022/04/13 07:37:57;;;;;;;30.48;16.20;;;12.90;99.90;;;;;;5055604;28;20098;-75
2022/04/13 07:40:23;;;;;;;26.70;15.77;;;13.00;99.90;;;;;;5054516;28;20106;-76
2022/04/13 07:42:49;;;;;;;22.75;16.27;;;13.00;99.90;;;;;;5051023;28;20040;-77
2022/04/13 07:45:15;;;;;;;24.00;15.93;;;13.20;99.90;;;;;;5054374;28;20130;-76
2022/04/13 07:47:41;;;;;;;27.50;16.38;;;13.20;99.90;;;;;;5053877;28;20103;-76
2022/04/13 07:50:12;;;;;;;27.00;18.08;;;13.20;99.90;;;;;;5056090;28;20079;-78
2022/04/13 07:52:38;;;;;;;29.40;17.27;;;13.30;99.90;;;;;;5054993;28;20401;-76
2022/04/13 07:55:05;;;;;;;24.95;15.90;;;13.30;99.90;;;;;;5055276;28;20045;-78
2022/04/13 07:57:30;;;;;;;23.23;15.25;;;13.40;99.90;;;;;;5054799;28;20135;-75
2022/04/13 07:59:56;;;;;;;32.03;16.02;;;13.40;99.90;;;;;;5054609;28;20080;-76
2022/04/13 08:02:22;;;;;;;25.98;16.13;;;13.60;99.90;;;;;;5054144;28;20320;-76
2022/04/13 08:04:48;;;;;;;31.42;17.13;;;13.60;99.90;;;;;;5054092;28;20506;-77
2022/04/13 08:07:14;;;;;;;24.98;15.23;;;13.60;99.90;;;;;;5035988;28;20455;-76
2022/04/13 08:09:40;;;;;;;24.83;16.67;;;13.60;99.90;;;;;;5053753;28;20455;-77
2022/04/13 08:12:06;;;;;;;28.25;16.50;;;13.60;99.90;;;;;;5053888;28;20420;-76
2022/04/13 08:14:32;;;;;;;23.15;14.82;;;13.60;99.90;;;;;;5054258;28;20045;-78
2022/04/13 08:16:57;;;;;;;25.88;15.90;;;13.50;99.90;;;;;;5020308;28;20351;-76
2022/04/13 08:19:23;;;;;;;25.73;15.45;;;13.40;99.90;;;;;;5038856;28;20328;-77
2022/04/13 08:21:50;;;;;;;31.08;15.30;;;13.40;99.90;;;;;;5057096;28;20033;-78
2022/04/13 08:24:18;;;;;;;24.05;14.57;;;13.40;99.90;;;;;;5057457;28;20123;-76
2022/04/13 08:26:44;;;;;;;29.88;15.38;;;13.40;99.90;;;;;;5057212;28;20387;-76
2022/04/13 08:29:10;;;;;;;23.20;14.20;;;13.40;99.90;;;;;;5039667;28;20044;-77
2022/04/13 08:31:37;;;;;;;28.50;16.52;;;13.40;99.90;;;;;;5057487;28;20127;-77
2022/04/13 08:34:02;;;;;;;29.77;16.30;;;13.40;99.90;;;;;;5057119;28;20051;-75
2022/04/13 08:36:28;;;;;;;28.88;15.85;;;13.50;99.90;;;;;;5056844;28;20045;-76
2022/04/13 08:38:54;;;;;;;25.52;14.60;;;13.50;99.90;;;;;;5057568;28;20351;-77
2022/04/13 08:41:40;;;;;;;26.35;15.40;;;13.50;99.90;;;;;;5057454;28;20350;-77
2022/04/13 08:44:16;;;;;;;28.75;14.23;;;13.50;99.90;;;;;;5057276;28;20068;-77
2022/04/13 08:46:45;;;;;;;24.20;14.90;;;13.50;99.90;;;;;;5057076;28;20300;-76
2022/04/13 08:49:13;;;;;;;28.63;16.17;;;13.60;99.90;;;;;;5056985;28;20068;-76
2022/04/13 08:51:39;;;;;;;21.67;14.07;;;13.50;99.90;;;;;;5039102;28;20045;-76
2022/04/13 08:54:17;;;;;;;24.58;15.68;;;13.70;99.90;;;;;;5057204;28;20080;-76
2022/04/13 08:56:47;;;;;;;21.48;14.88;;;13.70;99.90;;;;;;5039458;28;20041;-76
2022/04/13 08:59:30;;;;;;;28.33;14.95;;;13.70;99.90;;;;;;5039479;28;20393;-76
2022/04/13 09:02:02;;;;;;;24.77;14.85;;;13.80;99.90;;;;;;5056937;28;20087;-77
2022/04/13 09:04:32;;;;;;;23.88;15.32;;;14.00;99.90;;;;;;5039925;28;20045;-77
2022/04/13 09:07:00;;;;;;;23.45;15.23;;;14.00;99.90;;;;;;5056630;28;20033;-76
2022/04/13 09:09:39;;;;;;;25.35;15.73;;;14.10;99.90;;;;;;5038841;28;20045;-76
2022/04/13 09:12:07;;;;;;;25.77;13.95;;;14.20;99.90;;;;;;5056784;28;20036;-75
2022/04/13 09:14:34;;;;;;;21.83;13.20;;;14.20;99.90;;;;;;5053439;28;20045;-78
2022/04/13 09:17:02;;;;;;;28.92;14.95;;;14.30;99.90;;;;;;5039662;28;20051;-76
2022/04/13 09:19:28;;;;;;;22.25;12.75;;;14.30;99.90;;;;;;5057029;28;20365;-76
2022/04/13 09:21:55;;;;;;;23.55;13.40;;;14.30;99.90;;;;;;5038859;28;20049;-77
2022/04/13 09:24:22;;;;;;;26.08;13.63;;;14.40;99.90;;;;;;5056407;28;20114;-76
2022/04/13 09:26:48;;;;;;;22.48;13.10;;;14.50;99.90;;;;;;5056304;28;20071;-76
2022/04/13 09:29:14;;;;;;;18.88;14.18;;;14.50;99.90;;;;;;5039192;28;20052;-78
2022/04/13 09:31:40;;;;;;;25.05;13.52;;;14.50;99.90;;;;;;5056355;28;20435;-77
2022/04/13 09:34:05;;;;;;;22.58;12.93;;;14.50;99.90;;;;;;5055837;28;20052;-76
2022/04/13 09:36:32;;;;;;;25.95;12.75;;;14.60;99.90;;;;;;5038111;28;20037;-76
2022/04/13 09:38:59;;;;;;;25.33;13.18;;;14.70;99.90;;;;;;5055997;28;20044;-76
2022/04/13 09:41:36;;;;;;;22.88;12.10;;;14.70;99.90;;;;;;5056255;28;20048;-77
2022/04/13 09:44:10;;;;;;;19.75;11.65;;;14.90;99.90;;;;;;5038547;28;20104;-76
2022/04/13 09:46:37;;;;;;;25.60;13.02;;;15.00;99.90;;;;;;5056248;28;20033;-76
2022/04/13 09:49:19;;;;;;;23.35;12.75;;;15.00;99.90;;;;;;5055833;28;20080;-77
2022/04/13 09:51:49;;;;;;;20.50;10.90;;;15.00;99.90;;;;;;5055980;28;20131;-76
2022/04/13 09:54:15;;;;;;;18.45;11.23;;;15.00;99.90;;;;;;5038299;28;20070;-77
2022/04/13 09:56:47;;;;;;;20.17;12.23;;;14.90;99.90;;;;;;5055788;28;20040;-76
2022/04/13 09:59:28;;;;;;;18.17;11.63;;;14.90;99.90;;;;;;5055734;28;20091;-76
2022/04/13 10:01:54;;;;;;;22.85;11.50;;;14.90;99.90;;;;;;5055019;28;20044;-77
2022/04/13 10:04:31;;;;;;;23.48;12.35;;;14.90;99.90;;;;;;5055563;28;20179;-76
2022/04/13 10:07:17;;;;;;;21.00;11.68;;;14.80;99.90;;;;;;5017940;28;20049;-78
2022/04/13 10:09:43;;;;;;;17.67;11.77;;;14.90;99.90;;;;;;5048334;28;20119;-76
2022/04/13 10:12:09;;;;;;;20.65;11.45;;;14.90;99.90;;;;;;5055488;28;20179;-76
2022/04/13 10:14:35;;;;;;;24.30;13.00;;;14.80;99.90;;;;;;5052287;28;20355;-77
2022/04/13 10:17:15;;;;;;;24.02;12.45;;;14.90;99.90;;;;;;5055789;28;20052;-78
2022/04/13 10:19:52;;;;;;;22.45;13.10;;;14.90;99.90;;;;;;5055489;28;20056;-76
2022/04/13 10:22:17;;;;;;;21.13;12.07;;;15.00;99.90;;;;;;5054911;28;20087;-76
2022/04/13 10:24:43;;;;;;;21.75;12.93;;;15.00;99.90;;;;;;5055365;28;20040;-76
2022/04/13 10:27:13;;;;;;;21.52;12.00;;;14.90;99.90;;;;;;5055505;28;20045;-77
2022/04/13 10:29:40;;;;;;;20.98;11.25;;;15.00;99.90;;;;;;5055579;28;20130;-77
2022/04/13 10:32:11;;;;;;;24.00;11.95;;;15.10;99.90;;;;;;5055316;28;20040;-77
2022/04/13 10:34:43;;;;;;;23.20;13.60;;;15.20;99.90;;;;;;5055046;28;20067;-76
2022/04/13 10:37:14;;;;;;;19.25;11.38;;;15.10;99.90;;;;;;5054582;28;20036;-77
2022/04/13 10:39:41;;;;;;;22.13;11.40;;;15.00;99.90;;;;;;5055217;28;20150;-76
2022/04/13 10:42:10;;;;;;;20.83;12.02;;;15.10;99.90;;;;;;5054577;28;20041;-77
2022/04/13 10:44:40;;;;;;;18.33;11.73;;;15.10;99.90;;;;;;5052252;28;20072;-77
2022/04/13 10:47:07;;;;;;;25.98;13.48;;;15.00;99.90;;;;;;5055094;28;20036;-76
2022/04/13 10:49:45;;;;;;;23.27;11.70;;;15.00;99.90;;;;;;5055130;28;20458;-77
2022/04/13 10:52:23;;;;;;;21.20;12.35;;;15.00;99.90;;;;;;5054659;28;20053;-75
2022/04/13 10:54:53;;;;;;;25.75;13.20;;;14.90;99.90;;;;;;5037603;28;20462;-75
2022/04/13 10:57:21;;;;;;;20.23;11.88;;;14.90;99.90;;;;;;5037046;28;20037;-78
2022/04/13 10:59:56;;;;;;;17.48;11.63;;;14.80;99.90;;;;;;5054357;28;20087;-76
2022/04/13 11:02:32;;;;;;;19.05;11.95;;;14.80;99.90;;;;;;5054619;28;20458;-77
2022/04/13 11:04:59;;;;;;;23.77;12.48;;;14.70;99.90;;;;;;5054839;28;20114;-76
2022/04/13 11:07:25;;;;;;;20.27;11.52;;;14.60;99.90;;;;;;5054311;28;20132;-76
2022/04/13 11:09:58;;;;;;;18.40;10.93;;;14.70;99.90;;;;;;5054940;28;20072;-76
2022/04/13 11:12:25;;;;;;;24.42;11.50;;;14.60;99.90;;;;;;5037145;28;20041;-75
2022/04/13 11:14:55;;;;;;;20.35;12.50;;;14.60;99.90;;;;;;5054705;28;20124;-76
2022/04/13 11:17:25;;;;;;;20.35;10.90;;;14.60;99.90;;;;;;5054618;28;20044;-76
2022/04/13 11:19:51;;;;;;;16.95;11.43;;;14.60;99.90;;;;;;5054864;28;20037;-76
2022/04/13 11:22:18;;;;;;;21.00;12.70;;;14.50;99.90;;;;;;5036492;28;20511;-76
2022/04/13 11:24:47;;;;;;;19.65;12.20;;;14.50;99.90;;;;;;5054512;28;20051;-77
2022/04/13 11:27:13;;;;;;;17.80;12.60;;;14.60;99.90;;;;;;5054373;28;20037;-76
2022/04/13 11:29:44;;;;;;;22.58;11.95;;;14.60;99.90;;;;;;5037292;28;20045;-77
2022/04/13 11:32:10;;;;;;;19.83;10.68;;;14.70;99.90;;;;;;5037005;28;20060;-75
2022/04/13 11:34:50;;;;;;;21.17;11.70;;;14.80;99.90;;;;;;5054653;28;20057;-76
2022/04/13 11:37:23;;;;;;;23.00;11.70;;;14.80;99.90;;;;;;5036136;28;20538;-76
2022/04/13 11:40:03;;;;;;;20.00;10.48;;;14.80;99.90;;;;;;5019696;28;20480;-76
2022/04/13 11:42:28;;;;;;;23.02;9.68;;;14.80;99.90;;;;;;5054248;28;20049;-76
2022/04/13 11:45:04;;;;;;;22.13;9.85;;;14.60;99.90;;;;;;5036839;28;20351;-76
2022/04/13 11:47:40;;;;;;;22.38;9.50;;;14.60;99.90;;;;;;5054137;28;20051;-76
2022/04/13 11:50:15;;;;;;;20.70;8.68;;;14.60;99.90;;;;;;5054194;28;20458;-76
2022/04/13 11:52:48;;;;;;;15.15;9.07;;;14.60;99.90;;;;;;5054677;28;20449;-78
2022/04/13 11:55:27;;;;;;;22.08;11.18;;;14.70;99.90;;;;;;5058008;28;20443;-77
2022/04/13 11:58:04;;;;;;;24.83;11.10;;;14.80;99.90;;;;;;5058370;28;20074;-77
2022/04/13 12:00:59;;;;;;;20.17;10.55;;;14.70;99.90;;;;;;5023747;28;20121;-76
2022/04/13 12:03:32;;;;;;;19.70;10.40;;;14.60;99.90;;;;;;5057938;28;20052;-76
2022/04/13 12:06:09;;;;;;;17.35;9.50;;;14.50;99.90;;;;;;5057709;28;20040;-76
2022/04/13 12:08:36;;;;;;;16.13;9.02;;;14.50;99.90;;;;;;5040143;28;20084;-77
2022/04/13 12:11:08;;;;;;;21.52;9.10;;;14.40;99.90;;;;;;5040523;28;20060;-76
2022/04/13 12:13:54;;;;;;;19.30;9.88;;;14.40;99.90;;;;;;5057791;28;20093;-76
2022/04/13 12:16:33;;;;;;;19.13;10.88;;;14.50;99.90;;;;;;5057413;28;20123;-77
2022/04/13 12:19:04;;;;;;;18.08;11.35;;;14.50;99.90;;;;;;5057424;28;20041;-78
2022/04/13 12:21:31;;;;;;;20.23;11.10;;;14.50;99.90;;;;;;5040161;28;20056;-77
2022/04/13 12:24:00;;;;;;;24.40;12.27;;;14.50;99.90;;;;;;5057580;28;20056;-76
2022/04/13 12:26:36;;;;;;;21.85;11.85;;;14.60;99.90;;;;;;5057381;28;20072;-76
2022/04/13 12:29:11;;;;;;;25.02;11.77;;;14.60;99.90;;;;;;5057587;28;20435;-76
2022/04/13 12:31:48;;;;;;;23.48;12.45;;;14.70;99.90;;;;;;5057303;28;20055;-76